Time;durP1;ratioP1;P1;durP2;ratioP2;P2;SDS_P1;SDS_P2;PMS_P1;PMS_P2;Temp;Humidity;BMP_temperature;BMP_pressure;BME280_temperature;BME280_humidity;BME280_pressure;Samples;Min_cycle;Max_cycle;Signal;HPM_P1;HPM_P2
2022/01/08 00:02:20;;;;;;;8.95;5.40;;;;;;;;;;5027242;28;20033;-47
2022/01/08 00:04:46;;;;;;;8.70;5.38;;;;;;;;;;5022627;28;20045;-52
2022/01/08 00:07:11;;;;;;;6.65;4.53;;;;;;;;;;5027803;28;20479;-49
2022/01/08 00:09:37;;;;;;;10.98;4.60;;;;;;;;;;5030128;28;20037;-50
2022/01/08 00:12:03;;;;;;;6.70;4.05;;;;;;;;;;5030447;28;20109;-48
2022/01/08 00:14:29;;;;;;;10.50;5.18;;;;;;;;;;5026023;28;20025;-52
2022/01/08 00:16:55;;;;;;;14.65;5.90;;;;;;;;;;5023428;28;20033;-47
2022/01/08 00:19:21;;;;;;;15.65;6.10;;;;;;;;;;5021359;28;20041;-48
2022/01/08 00:21:47;;;;;;;10.45;5.60;;;;;;;;;;5027711;28;20172;-46
2022/01/08 00:24:12;;;;;;;13.00;6.28;;;;;;;;;;5019653;28;20041;-49
2022/01/08 00:26:38;;;;;;;11.85;5.25;;;;;;;;;;5023564;28;20119;-51
2022/01/08 00:29:04;;;;;;;10.60;5.00;;;;;;;;;;5025949;28;20480;-52
2022/01/08 00:31:29;;;;;;;12.93;5.22;;;;;;;;;;5021865;28;20210;-47
2022/01/08 00:33:55;;;;;;;9.48;4.75;;;;;;;;;;5030177;28;20528;-47
2022/01/08 00:36:21;;;;;;;9.32;5.82;;;;;;;;;;5024350;28;20494;-49
2022/01/08 00:38:47;;;;;;;10.95;5.72;;;;;;;;;;5022341;28;20026;-50
2022/01/08 00:41:13;;;;;;;10.00;4.80;;;;;;;;;;5024392;28;20057;-50
2022/01/08 00:43:38;;;;;;;15.05;9.18;;;;;;;;;;5028584;28;20038;-47
2022/01/08 00:46:04;;;;;;;12.45;7.75;;;;;;;;;;5029656;28;20087;-51
2022/01/08 00:48:30;;;;;;;12.75;7.15;;;;;;;;;;5024047;28;20036;-48
2022/01/08 00:50:56;;;;;;;13.57;6.72;;;;;;;;;;5023304;28;20029;-51
2022/01/08 00:53:21;;;;;;;14.25;5.95;;;;;;;;;;5026510;28;20046;-48
2022/01/08 00:55:47;;;;;;;7.68;5.15;;;;;;;;;;5025067;28;20061;-47
2022/01/08 00:58:13;;;;;;;9.57;5.28;;;;;;;;;;5016506;28;20033;-50
2022/01/08 01:00:41;;;;;;;9.50;5.30;;;;;;;;;;5027526;28;20076;-48
2022/01/08 01:03:08;;;;;;;10.85;5.53;;;;;;;;;;5027350;28;20079;-49
2022/01/08 01:05:34;;;;;;;13.70;6.15;;;;;;;;;;5028065;28;20069;-51
2022/01/08 01:08:00;;;;;;;9.45;5.78;;;;;;;;;;5026052;28;20471;-53
2022/01/08 01:10:26;;;;;;;9.23;4.97;;;;;;;;;;5028304;28;20075;-48
2022/01/08 01:12:51;;;;;;;12.20;5.90;;;;;;;;;;5020891;28;20048;-47
2022/01/08 01:15:18;;;;;;;11.15;5.30;;;;;;;;;;5026911;28;20037;-47
2022/01/08 01:17:45;;;;;;;8.43;5.05;;;;;;;;;;5022402;28;20037;-47
2022/01/08 01:20:15;;;;;;;11.60;5.80;;;;;;;;;;5023893;28;20414;-49
2022/01/08 01:22:49;;;;;;;12.00;6.20;;;;;;;;;;5028623;28;20045;-47
2022/01/08 01:25:20;;;;;;;7.55;4.75;;;;;;;;;;5023394;28;20121;-49
2022/01/08 01:30:37;;;;;;;11.80;5.50;;;;;;;;;;5024417;28;20486;-49
2022/01/08 01:48:48;;;;;;;10.75;5.32;;;;;;;;;;5023541;28;20041;-51
2022/01/08 01:51:23;;;;;;;11.95;5.90;;;;;;;;;;5018697;28;20038;-51
2022/01/08 01:53:49;;;;;;;18.27;6.80;;;;;;;;;;5024518;28;20124;-53
2022/01/08 01:56:17;;;;;;;11.95;7.30;;;;;;;;;;5022845;28;20084;-50
2022/01/08 01:58:43;;;;;;;9.73;5.63;;;;;;;;;;5026721;28;20084;-47
2022/01/08 02:01:09;;;;;;;11.77;6.30;;;;;;;;;;5017656;28;20419;-53
2022/01/08 02:03:35;;;;;;;14.30;5.78;;;;;;;;;;5023426;28;20247;-48
2022/01/08 02:06:01;;;;;;;10.48;5.45;;;;;;;;;;5022567;28;20045;-51
2022/01/08 02:08:29;;;;;;;13.38;5.38;;;;;;;;;;5014964;28;20117;-52
2022/01/08 02:10:54;;;;;;;13.07;4.47;;;;;;;;;;5027494;28;20793;-46
2022/01/08 02:13:25;;;;;;;8.40;4.32;;;;;;;;;;5022985;28;20038;-47
2022/01/08 02:15:53;;;;;;;5.53;4.30;;;;;;;;;;5022705;28;20466;-50
2022/01/08 02:18:20;;;;;;;5.97;4.05;;;;;;;;;;5017425;28;20030;-48
2022/01/08 02:20:46;;;;;;;6.53;3.53;;;;;;;;;;5025120;28;20041;-54
2022/01/08 02:23:11;;;;;;;4.85;3.50;;;;;;;;;;5025497;28;20025;-49
2022/01/08 02:25:37;;;;;;;4.32;2.88;;;;;;;;;;5018993;28;20029;-52
2022/01/08 02:28:04;;;;;;;5.55;3.20;;;;;;;;;;5028239;28;20038;-52
2022/01/08 02:30:29;;;;;;;8.35;3.60;;;;;;;;;;5019797;28;20030;-47
2022/01/08 02:32:55;;;;;;;13.07;4.43;;;;;;;;;;5020062;28;20187;-51
2022/01/08 02:35:22;;;;;;;10.93;3.65;;;;;;;;;;5017447;28;20451;-50
2022/01/08 02:37:51;;;;;;;8.05;3.97;;;;;;;;;;5024254;28;20025;-50
2022/01/08 02:40:22;;;;;;;9.30;4.20;;;;;;;;;;5021897;28;20033;-47
2022/01/08 02:42:53;;;;;;;8.48;4.50;;;;;;;;;;5026776;28;20598;-50
2022/01/08 02:45:21;;;;;;;8.05;3.92;;;;;;;;;;5025978;28;20550;-48
2022/01/08 02:47:48;;;;;;;5.75;3.45;;;;;;;;;;5025046;28;20366;-48
2022/01/08 02:50:15;;;;;;;11.80;3.58;;;;;;;;;;5017630;28;20541;-49
2022/01/08 02:52:42;;;;;;;5.80;3.53;;;;;;;;;;5018227;28;20033;-49
2022/01/08 02:55:09;;;;;;;7.85;4.03;;;;;;;;;;5020143;28;20532;-49
2022/01/08 02:57:34;;;;;;;5.60;3.55;;;;;;;;;;5017283;28;20491;-55
2022/01/08 03:00:00;;;;;;;8.13;3.92;;;;;;;;;;5023611;28;20033;-50
2022/01/08 03:02:33;;;;;;;;;;;;;;;;;;5021023;28;20080;-48
2022/01/08 03:04:58;;;;;;;9.10;3.97;;;;;;;;;;5023629;28;20301;-46
2022/01/08 03:07:24;;;;;;;12.10;6.63;;;;;;;;;;5020776;28;20052;-48
2022/01/08 03:09:56;;;;;;;12.68;7.90;;;;;;;;;;5026172;28;20029;-52
2022/01/08 03:12:27;;;;;;;12.55;7.35;;;;;;;;;;5029058;28;20132;-49
2022/01/08 03:14:55;;;;;;;14.65;7.75;;;;;;;;;;5026226;28;20029;-54
2022/01/08 03:17:20;;;;;;;14.68;7.43;;;;;;;;;;5026722;28;20057;-49
2022/01/08 03:19:46;;;;;;;11.25;6.40;;;;;;;;;;5028350;28;20104;-49
2022/01/08 03:22:12;;;;;;;10.80;5.97;;;;;;;;;;5030290;28;20060;-53
2022/01/08 03:24:41;;;;;;;13.80;6.05;;;;;;;;;;5028066;28;20044;-48
2022/01/08 03:27:07;;;;;;;12.57;5.53;;;;;;;;;;5030525;28;20025;-52
2022/01/08 03:29:33;;;;;;;11.95;7.00;;;;;;;;;;5027019;28;20029;-50
2022/01/08 03:31:59;;;;;;;13.90;7.40;;;;;;;;;;5021140;28;20037;-49
2022/01/08 03:34:24;;;;;;;16.10;8.38;;;;;;;;;;5027525;28;20072;-52
2022/01/08 03:36:50;;;;;;;23.65;8.40;;;;;;;;;;5019114;28;20026;-53
2022/01/08 03:39:17;;;;;;;10.45;6.30;;;;;;;;;;5026686;28;20036;-53
2022/01/08 03:41:44;;;;;;;6.93;4.72;;;;;;;;;;5025112;28;20026;-54
2022/01/08 03:44:09;;;;;;;5.85;4.40;;;;;;;;;;5023968;28;20501;-54
2022/01/08 03:46:36;;;;;;;8.98;5.00;;;;;;;;;;5022025;28;20037;-52
2022/01/08 03:51:30;;;;;;;9.63;6.43;;;;;;;;;;5023175;28;20030;-55
2022/01/08 03:53:57;;;;;;;8.98;4.82;;;;;;;;;;5024531;28;20546;-52
2022/01/08 03:56:24;;;;;;;8.10;5.13;;;;;;;;;;5030103;28;20025;-50
2022/01/08 03:58:50;;;;;;;8.52;5.15;;;;;;;;;;5023266;28;20116;-49
2022/01/08 04:01:16;;;;;;;9.23;4.28;;;;;;;;;;5024420;28;20518;-53
2022/01/08 04:03:42;;;;;;;10.20;4.20;;;;;;;;;;5024933;28;20033;-52
2022/01/08 04:06:08;;;;;;;9.50;4.55;;;;;;;;;;5021532;28;20059;-56
2022/01/08 04:08:34;;;;;;;6.15;3.70;;;;;;;;;;5027689;28;20155;-50
2022/01/08 04:11:01;;;;;;;9.65;4.13;;;;;;;;;;5022294;28;20538;-53
2022/01/08 04:13:31;;;;;;;5.72;3.53;;;;;;;;;;5022351;28;20132;-54
2022/01/08 04:16:05;;;;;;;7.25;4.68;;;;;;;;;;5021577;28;20037;-50
2022/01/08 04:18:31;;;;;;;9.18;4.50;;;;;;;;;;5026196;28;20045;-47
2022/01/08 04:23:41;;;;;;;34.83;14.43;;;;;;;;;;5023176;28;20506;-49
2022/01/08 04:26:08;;;;;;;103.90;32.55;;;;;;;;;;5028759;28;20052;-54
2022/01/08 04:28:34;;;;;;;128.38;39.22;;;;;;;;;;5023046;28;20386;-52
2022/01/08 04:31:00;;;;;;;153.63;43.53;;;;;;;;;;5023364;28;20037;-50
2022/01/08 04:33:26;;;;;;;93.70;28.15;;;;;;;;;;5020263;28;20041;-49
2022/01/08 04:35:51;;;;;;;110.25;30.38;;;;;;;;;;5017822;28;20455;-52
2022/01/08 04:38:17;;;;;;;107.70;31.83;;;;;;;;;;5025207;28;20030;-54
2022/01/08 04:40:43;;;;;;;94.15;26.63;;;;;;;;;;5022053;28;20059;-54
2022/01/08 04:43:09;;;;;;;51.53;16.77;;;;;;;;;;5030730;28;20132;-54
2022/01/08 04:45:34;;;;;;;39.78;14.90;;;;;;;;;;5024591;28;20072;-50
2022/01/08 04:48:01;;;;;;;87.53;26.42;;;;;;;;;;5019751;28;20042;-47
2022/01/08 04:50:28;;;;;;;75.60;24.75;;;;;;;;;;5020345;28;20844;-47
2022/01/08 04:52:55;;;;;;;48.90;18.08;;;;;;;;;;5028433;28;20083;-54
2022/01/08 04:55:21;;;;;;;20.80;10.55;;;;;;;;;;5024535;28;20398;-52
2022/01/08 04:57:48;;;;;;;11.48;7.13;;;;;;;;;;5030098;28;20065;-51
2022/01/08 05:00:16;;;;;;;11.85;8.23;;;;;;;;;;5019347;28;20034;-51
2022/01/08 05:02:42;;;;;;;10.05;6.28;;;;;;;;;;5025368;28;20034;-54
2022/01/08 05:05:08;;;;;;;9.20;6.00;;;;;;;;;;5028535;28;20386;-52
2022/01/08 05:07:34;;;;;;;10.60;6.90;;;;;;;;;;5018076;28;20470;-54
2022/01/08 05:09:59;;;;;;;10.57;6.72;;;;;;;;;;5026626;28;20041;-50
2022/01/08 05:12:25;;;;;;;14.15;8.65;;;;;;;;;;5026246;28;20040;-53
2022/01/08 05:14:51;;;;;;;14.35;8.40;;;;;;;;;;5023307;28;20037;-52
2022/01/08 05:17:17;;;;;;;13.77;7.93;;;;;;;;;;5016559;28;20073;-55
2022/01/08 05:19:48;;;;;;;10.18;6.85;;;;;;;;;;5021487;28;20072;-50
2022/01/08 05:25:09;;;;;;;7.95;5.32;;;;;;;;;;4977750;28;20046;-50
2022/01/08 05:27:35;;;;;;;10.25;4.70;;;;;;;;;;4982678;28;20035;-54
2022/01/08 05:30:00;;;;;;;9.85;6.13;;;;;;;;;;4984861;28;20057;-54
2022/01/08 05:32:28;;;;;;;9.43;7.28;;;;;;;;;;4976765;28;20557;-50
2022/01/08 05:34:54;;;;;;;8.20;4.90;;;;;;;;;;4981049;28;20046;-49
2022/01/08 05:37:20;;;;;;;9.38;5.55;;;;;;;;;;4981544;28;20061;-54
2022/01/08 05:39:47;;;;;;;10.20;6.15;;;;;;;;;;4976584;28;20058;-55
2022/01/08 05:42:13;;;;;;;13.90;5.78;;;;;;;;;;4982924;28;20040;-51
2022/01/08 05:44:39;;;;;;;8.70;5.30;;;;;;;;;;4980053;28;20122;-50
2022/01/08 05:47:05;;;;;;;11.50;7.03;;;;;;;;;;4979789;28;20042;-52
2022/01/08 05:49:31;;;;;;;13.55;8.30;;;;;;;;;;4978975;28;20042;-55
2022/01/08 05:51:57;;;;;;;16.58;9.13;;;;;;;;;;4973569;28;20496;-53
2022/01/08 05:54:22;;;;;;;20.20;11.63;;;;;;;;;;4980386;28;20086;-54
2022/01/08 05:56:51;;;;;;;18.52;12.38;;;;;;;;;;4979264;28;20030;-54
2022/01/08 05:59:18;;;;;;;19.70;12.02;;;;;;;;;;4978831;28;20133;-52
2022/01/08 06:01:44;;;;;;;21.02;11.48;;;;;;;;;;5011417;28;20042;-54
2022/01/08 06:04:10;;;;;;;17.08;10.57;;;;;;;;;;5021725;28;20037;-54
2022/01/08 06:06:39;;;;;;;18.08;8.40;;;;;;;;;;5025873;28;20052;-53
2022/01/08 06:09:05;;;;;;;12.15;7.45;;;;;;;;;;5025991;28;20056;-54
2022/01/08 06:11:31;;;;;;;14.40;7.25;;;;;;;;;;5026607;28;20486;-54
2022/01/08 06:13:56;;;;;;;11.60;6.00;;;;;;;;;;5023972;28;20061;-54
2022/01/08 06:16:22;;;;;;;10.38;5.75;;;;;;;;;;5024396;28;20033;-51
2022/01/08 06:18:48;;;;;;;10.95;5.75;;;;;;;;;;5022234;28;20030;-49
2022/01/08 06:21:14;;;;;;;10.85;6.28;;;;;;;;;;5022631;28;20052;-47
2022/01/08 06:23:39;;;;;;;8.30;5.75;;;;;;;;;;5026934;28;20477;-47
2022/01/08 06:26:06;;;;;;;10.27;5.93;;;;;;;;;;5021258;28;20038;-47
2022/01/08 06:28:33;;;;;;;8.38;5.15;;;;;;;;;;5020812;28;20056;-54
2022/01/08 06:30:59;;;;;;;8.70;5.72;;;;;;;;;;5018831;28;20146;-55
2022/01/08 06:33:25;;;;;;;12.55;5.57;;;;;;;;;;5022260;28;20509;-51
2022/01/08 06:35:51;;;;;;;26.02;10.98;;;;;;;;;;5026286;28;20267;-52
2022/01/08 06:38:20;;;;;;;71.15;34.47;;;;;;;;;;5024434;28;20391;-54
2022/01/08 06:40:46;;;;;;;46.50;23.60;;;;;;;;;;5021945;28;20025;-53
2022/01/08 06:43:12;;;;;;;15.05;9.43;;;;;;;;;;5022275;28;20029;-50
2022/01/08 06:45:39;;;;;;;16.42;10.00;;;;;;;;;;5021743;28;20160;-53
2022/01/08 06:48:05;;;;;;;22.90;11.85;;;;;;;;;;5018535;28;20061;-51
2022/01/08 06:50:30;;;;;;;15.27;8.63;;;;;;;;;;5021604;28;20588;-47
2022/01/08 06:52:56;;;;;;;7.13;3.47;;;;;;;;;;5024269;28;20131;-55
2022/01/08 06:55:22;;;;;;;26.33;13.85;;;;;;;;;;5023315;28;20041;-51
2022/01/08 06:57:48;;;;;;;17.08;9.02;;;;;;;;;;5019377;28;20156;-48
2022/01/08 07:00:14;;;;;;;6.45;3.88;;;;;;;;;;5022247;28;20033;-47
2022/01/08 07:02:40;;;;;;;5.88;3.30;;;;;;;;;;5019360;28;20041;-55
2022/01/08 07:05:06;;;;;;;8.10;3.90;;;;;;;;;;5015506;28;20037;-52
2022/01/08 07:07:32;;;;;;;11.07;6.28;;;;;;;;;;5022907;28;20469;-48
2022/01/08 07:09:58;;;;;;;7.03;5.47;;;;;;;;;;5027519;28;20045;-49
2022/01/08 07:12:24;;;;;;;7.22;5.10;;;;;;;;;;5021713;28;20557;-51
2022/01/08 07:14:49;;;;;;;5.85;4.50;;;;;;;;;;5019112;28;20463;-48
2022/01/08 07:17:15;;;;;;;6.15;3.80;;;;;;;;;;5016654;28;20577;-49
2022/01/08 07:19:41;;;;;;;4.65;3.63;;;;;;;;;;5020735;28;20127;-50
2022/01/08 07:22:06;;;;;;;9.40;5.93;;;;;;;;;;5017021;28;20471;-52
2022/01/08 07:24:32;;;;;;;13.15;4.57;;;;;;;;;;5016770;28;20021;-51
2022/01/08 07:26:58;;;;;;;14.40;9.13;;;;;;;;;;5016440;28;20034;-48
2022/01/08 07:29:24;;;;;;;10.98;7.50;;;;;;;;;;5021958;28;20127;-48
2022/01/08 07:31:50;;;;;;;8.07;5.10;;;;;;;;;;5020392;28;20477;-51
2022/01/08 07:34:15;;;;;;;10.40;6.20;;;;;;;;;;5017469;28;20824;-50
2022/01/08 07:36:41;;;;;;;6.70;5.95;;;;;;;;;;5019146;28;20036;-51
2022/01/08 07:39:07;;;;;;;12.32;6.50;;;;;;;;;;5017350;28;20022;-54
2022/01/08 07:41:33;;;;;;;9.20;6.72;;;;;;;;;;5017174;28;21933;-47
2022/01/08 07:43:58;;;;;;;13.15;7.55;;;;;;;;;;5020250;28;20033;-52
2022/01/08 07:46:24;;;;;;;8.15;6.63;;;;;;;;;;5021265;28;20040;-50
2022/01/08 07:48:50;;;;;;;8.88;6.05;;;;;;;;;;5017246;28;20040;-48
2022/01/08 07:51:16;;;;;;;7.70;6.90;;;;;;;;;;5025760;28;20042;-49
2022/01/08 07:53:41;;;;;;;11.77;7.05;;;;;;;;;;5026635;28;20176;-51
2022/01/08 07:56:07;;;;;;;14.32;8.20;;;;;;;;;;5021620;28;20080;-49
2022/01/08 07:58:33;;;;;;;10.75;7.95;;;;;;;;;;5024108;28;20025;-48
2022/01/08 08:00:59;;;;;;;6.47;5.40;;;;;;;;;;5022739;28;20045;-51
2022/01/08 08:03:25;;;;;;;4.47;3.45;;;;;;;;;;5022677;28;20037;-47
2022/01/08 08:05:51;;;;;;;8.13;4.32;;;;;;;;;;5020317;28;20040;-53
2022/01/08 08:08:18;;;;;;;7.40;4.15;;;;;;;;;;5027372;28;20033;-51
2022/01/08 08:10:47;;;;;;;7.85;4.10;;;;;;;;;;5021672;28;20122;-48
2022/01/08 08:13:14;;;;;;;9.77;4.07;;;;;;;;;;5024933;28;20199;-52
2022/01/08 08:15:39;;;;;;;6.00;3.67;;;;;;;;;;5026602;28;20430;-48
2022/01/08 08:18:05;;;;;;;5.13;3.70;;;;;;;;;;5027571;28;20040;-52
2022/01/08 08:20:31;;;;;;;10.50;4.05;;;;;;;;;;5025673;28;20532;-50
2022/01/08 08:22:57;;;;;;;7.53;4.28;;;;;;;;;;5026022;28;20029;-51
2022/01/08 08:25:23;;;;;;;9.57;3.80;;;;;;;;;;5021563;28;20061;-50
2022/01/08 08:27:50;;;;;;;5.78;3.70;;;;;;;;;;5024553;28;20083;-48
2022/01/08 08:30:16;;;;;;;6.50;3.45;;;;;;;;;;5027709;28;20028;-48
2022/01/08 08:32:42;;;;;;;9.13;3.45;;;;;;;;;;5021813;28;20045;-48
2022/01/08 08:35:08;;;;;;;4.25;3.00;;;;;;;;;;5024590;28;20061;-47
2022/01/08 08:37:35;;;;;;;7.15;4.00;;;;;;;;;;5021730;28;20718;-53
2022/01/08 08:40:05;;;;;;;10.63;4.25;;;;;;;;;;5019725;28;20042;-51
2022/01/08 08:42:31;;;;;;;8.15;5.25;;;;;;;;;;5029566;28;20033;-50
2022/01/08 08:44:57;;;;;;;7.72;4.75;;;;;;;;;;5018052;28;20040;-53
2022/01/08 08:47:23;;;;;;;20.27;12.02;;;;;;;;;;5023558;28;20038;-50
2022/01/08 08:49:48;;;;;;;17.00;10.20;;;;;;;;;;5038258;28;20037;-49
2022/01/08 08:52:14;;;;;;;8.80;3.42;;;;;;;;;;5024076;28;20025;-50
2022/01/08 08:54:41;;;;;;;11.63;7.28;;;;;;;;;;5015177;28;20029;-54
2022/01/08 08:57:08;;;;;;;7.97;4.35;;;;;;;;;;5026922;28;20034;-52
2022/01/08 08:59:34;;;;;;;12.40;7.03;;;;;;;;;;5024683;28;20037;-49
2022/01/08 09:02:00;;;;;;;5.47;3.88;;;;;;;;;;5021769;28;20049;-49
2022/01/08 09:04:25;;;;;;;6.45;4.32;;;;;;;;;;5021616;28;20487;-51
2022/01/08 09:06:51;;;;;;;12.45;3.65;;;;;;;;;;5023076;28;20041;-48
2022/01/08 09:09:18;;;;;;;4.68;3.15;;;;;;;;;;5021784;28;20040;-49
2022/01/08 09:11:44;;;;;;;7.68;4.25;;;;;;;;;;5025579;28;20462;-48
2022/01/08 09:14:09;;;;;;;5.93;4.25;;;;;;;;;;5026923;28;20037;-50
2022/01/08 09:16:36;;;;;;;5.78;3.60;;;;;;;;;;5020313;28;20371;-48
2022/01/08 09:19:03;;;;;;;6.90;3.60;;;;;;;;;;5021775;28;20541;-50
2022/01/08 09:21:29;;;;;;;6.20;4.18;;;;;;;;;;5023181;28;20033;-47
2022/01/08 09:23:55;;;;;;;8.52;5.00;;;;;;;;;;5015092;28;20541;-48
2022/01/08 09:26:20;;;;;;;10.75;4.97;;;;;;;;;;5020208;28;20403;-52
2022/01/08 09:28:46;;;;;;;8.35;5.30;;;;;;;;;;5030187;28;20099;-47
2022/01/08 09:31:12;;;;;;;10.82;4.47;;;;;;;;;;5017599;28;20033;-49
2022/01/08 09:33:38;;;;;;;6.10;3.55;;;;;;;;;;5024801;28;20560;-48
2022/01/08 09:36:05;;;;;;;8.90;4.10;;;;;;;;;;5025203;28;20140;-48
2022/01/08 09:38:31;;;;;;;4.72;3.17;;;;;;;;;;5020039;28;20034;-48
2022/01/08 09:40:57;;;;;;;5.05;3.35;;;;;;;;;;5054553;28;20615;-49
2022/01/08 09:43:23;;;;;;;6.68;4.40;;;;;;;;;;5026298;28;20033;-49
2022/01/08 09:45:49;;;;;;;11.93;5.22;;;;;;;;;;5023397;28;20041;-49
2022/01/08 09:48:15;;;;;;;12.07;5.30;;;;;;;;;;5023678;28;20041;-49
2022/01/08 09:50:44;;;;;;;7.72;4.05;;;;;;;;;;5024222;28;20508;-47
2022/01/08 09:53:10;;;;;;;6.78;3.67;;;;;;;;;;5019236;28;20033;-49
2022/01/08 09:55:36;;;;;;;6.20;3.60;;;;;;;;;;5027933;28;20083;-50
2022/01/08 09:58:03;;;;;;;5.95;2.60;;;;;;;;;;5020678;28;20057;-50
2022/01/08 10:00:31;;;;;;;6.43;4.43;;;;;;;;;;5023525;28;20030;-49
2022/01/08 10:03:13;;;;;;;4.80;3.58;;;;;;;;;;5026092;28;20068;-49
2022/01/08 10:05:44;;;;;;;6.00;3.65;;;;;;;;;;5022254;28;20037;-48
2022/01/08 10:08:13;;;;;;;5.68;3.63;;;;;;;;;;5018015;28;20529;-50
2022/01/08 10:10:39;;;;;;;3.40;2.78;;;;;;;;;;5018784;28;20061;-51
2022/01/08 10:13:05;;;;;;;6.13;2.53;;;;;;;;;;5019992;28;20470;-50
2022/01/08 10:18:27;;;;;;;5.53;2.67;;;;;;;;;;5022499;28;20041;-49
2022/01/08 10:20:55;;;;;;;4.70;2.90;;;;;;;;;;5023323;28;20042;-50
2022/01/08 10:23:25;;;;;;;3.95;2.72;;;;;;;;;;5020179;28;20048;-50
2022/01/08 10:26:03;;;;;;;6.90;2.65;;;;;;;;;;5021721;28;20104;-49
2022/01/08 10:28:40;;;;;;;5.68;3.13;;;;;;;;;;5023344;28;20021;-48
2022/01/08 10:31:12;;;;;;;5.43;3.42;;;;;;;;;;5020822;28;20096;-51
2022/01/08 10:33:39;;;;;;;4.82;2.55;;;;;;;;;;5022382;28;20486;-49
2022/01/08 10:36:06;;;;;;;3.10;2.60;;;;;;;;;;5024755;28;20112;-50
2022/01/08 10:38:31;;;;;;;4.93;3.20;;;;;;;;;;5023049;28;20061;-54
2022/01/08 10:40:59;;;;;;;4.35;2.75;;;;;;;;;;5018043;28;20068;-49
2022/01/08 10:43:27;;;;;;;4.88;2.53;;;;;;;;;;5021751;28;20025;-52
2022/01/08 10:45:55;;;;;;;4.85;2.63;;;;;;;;;;5027064;28;20382;-54
2022/01/08 10:48:30;;;;;;;5.20;2.33;;;;;;;;;;5017784;28;20096;-49
2022/01/08 10:51:15;;;;;;;7.28;2.70;;;;;;;;;;5023623;28;20029;-52
2022/01/08 10:53:50;;;;;;;4.90;2.70;;;;;;;;;;5022111;28;21822;-54
2022/01/08 10:56:28;;;;;;;5.80;3.92;;;;;;;;;;5018156;28;20037;-48
2022/01/08 10:59:05;;;;;;;7.60;2.85;;;;;;;;;;5022136;28;20037;-48
2022/01/08 11:01:42;;;;;;;2.97;2.10;;;;;;;;;;5018747;28;20516;-49
2022/01/08 11:04:10;;;;;;;3.13;2.03;;;;;;;;;;5018169;28;20029;-52
2022/01/08 11:06:57;;;;;;;3.60;2.28;;;;;;;;;;5023848;28;20025;-51
2022/01/08 11:09:25;;;;;;;4.63;2.63;;;;;;;;;;5019700;28;20021;-50
2022/01/08 11:11:51;;;;;;;3.90;2.63;;;;;;;;;;5017028;28;20040;-54
2022/01/08 11:17:10;;;;;;;2.42;2.22;;;;;;;;;;5024129;28;20397;-53
2022/01/08 11:19:37;;;;;;;3.72;2.08;;;;;;;;;;5025156;28;20029;-55
2022/01/08 11:22:06;;;;;;;3.10;1.75;;;;;;;;;;5019123;28;20110;-47
2022/01/08 11:24:32;;;;;;;2.55;1.83;;;;;;;;;;5018505;28;20052;-50
2022/01/08 11:26:58;;;;;;;4.93;1.85;;;;;;;;;;5022242;28;20116;-50
2022/01/08 11:29:25;;;;;;;1.50;1.40;;;;;;;;;;5020211;28;20486;-52
2022/01/08 11:31:55;;;;;;;5.43;2.00;;;;;;;;;;5022693;28;20108;-52
2022/01/08 11:34:24;;;;;;;2.47;1.95;;;;;;;;;;5024575;28;20037;-53
2022/01/08 11:36:51;;;;;;;3.40;1.95;;;;;;;;;;5020252;28;20039;-49
2022/01/08 11:39:17;;;;;;;1.98;1.70;;;;;;;;;;5021990;28;20045;-48
2022/01/08 11:41:45;;;;;;;4.57;1.75;;;;;;;;;;5023790;28;20049;-55
2022/01/08 11:44:12;;;;;;;3.97;2.42;;;;;;;;;;5020230;28;20111;-49
2022/01/08 11:46:38;;;;;;;4.40;1.50;;;;;;;;;;5022994;28;20493;-50
2022/01/08 11:49:04;;;;;;;3.00;1.55;;;;;;;;;;5025217;28;20040;-50
2022/01/08 11:51:31;;;;;;;1.83;1.70;;;;;;;;;;5021230;28;20040;-49
2022/01/08 11:53:59;;;;;;;3.97;1.63;;;;;;;;;;5018090;28;20044;-51
2022/01/08 11:56:26;;;;;;;3.42;1.95;;;;;;;;;;5021740;28;20107;-54
2022/01/08 11:59:01;;;;;;;2.88;1.40;;;;;;;;;;5024980;28;20029;-48
2022/01/08 12:01:27;;;;;;;1.58;1.48;;;;;;;;;;5027038;28;20038;-50
2022/01/08 12:03:54;;;;;;;2.15;1.27;;;;;;;;;;5019059;28;20026;-54
2022/01/08 12:06:29;;;;;;;1.42;1.02;;;;;;;;;;5023117;28;20026;-50
2022/01/08 12:09:27;;;;;;;1.85;1.30;;;;;;;;;;5020328;28;20034;-51
2022/01/08 12:12:03;;;;;;;1.83;0.75;;;;;;;;;;5022229;28;20052;-53
2022/01/08 12:14:35;;;;;;;1.05;0.90;;;;;;;;;;5019374;28;21447;-47
2022/01/08 12:17:18;;;;;;;1.10;1.00;;;;;;;;;;5023977;28;20113;-49
2022/01/08 12:19:51;;;;;;;4.55;1.23;;;;;;;;;;5025938;28;20149;-50
2022/01/08 12:22:20;;;;;;;3.35;3.05;;;;;;;;;;5027702;28;20037;-52
2022/01/08 12:24:52;;;;;;;2.17;1.90;;;;;;;;;;5025838;28;20045;-52
2022/01/08 12:27:21;;;;;;;4.93;1.17;;;;;;;;;;5021665;28;20041;-49
2022/01/08 12:29:48;;;;;;;1.67;1.33;;;;;;;;;;5024338;28;20185;-48
2022/01/08 12:35:15;;;;;;;1.60;1.40;;;;;;;;;;5017883;28;20037;-54
2022/01/08 12:37:44;;;;;;;2.05;1.50;;;;;;;;;;5016362;28;20064;-54
2022/01/08 12:40:12;;;;;;;2.28;1.17;;;;;;;;;;5020988;28;20034;-55
2022/01/08 12:42:43;;;;;;;2.78;1.15;;;;;;;;;;5023726;28;20621;-52
2022/01/08 12:45:32;;;;;;;4.40;1.40;;;;;;;;;;5024453;28;20406;-51
2022/01/08 12:48:04;;;;;;;2.72;1.95;;;;;;;;;;5023677;28;20041;-55
2022/01/08 12:50:37;;;;;;;3.03;1.55;;;;;;;;;;5024649;28;20034;-54
2022/01/08 12:53:05;;;;;;;2.40;1.50;;;;;;;;;;5024211;28;20052;-50
2022/01/08 12:55:52;;;;;;;2.55;1.17;;;;;;;;;;5021757;28;20087;-52
2022/01/08 12:58:19;;;;;;;2.00;1.52;;;;;;;;;;5021709;28;20612;-52
2022/01/08 13:01:11;;;;;;;1.90;1.77;;;;;;;;;;5023561;28;20048;-50
2022/01/08 13:03:42;;;;;;;2.47;1.40;;;;;;;;;;5018722;28;20041;-50
2022/01/08 13:06:13;;;;;;;2.40;1.70;;;;;;;;;;5023621;28;20033;-51
2022/01/08 13:08:44;;;;;;;1.73;1.60;;;;;;;;;;5015809;28;20735;-52
2022/01/08 13:11:12;;;;;;;1.95;1.40;;;;;;;;;;5023166;28;20115;-49
2022/01/08 13:13:53;;;;;;;1.60;1.20;;;;;;;;;;5022920;28;20082;-55
2022/01/08 13:16:22;;;;;;;1.17;1.00;;;;;;;;;;5020375;28;20549;-52
2022/01/08 13:18:51;;;;;;;2.80;1.42;;;;;;;;;;5028663;28;20429;-55
2022/01/08 13:21:18;;;;;;;1.75;1.38;;;;;;;;;;5021285;28;20049;-49
2022/01/08 13:23:48;;;;;;;1.63;0.93;;;;;;;;;;5020542;28;20026;-52
2022/01/08 13:26:15;;;;;;;2.95;1.33;;;;;;;;;;5016843;28;20064;-52
2022/01/08 13:28:48;;;;;;;2.20;1.90;;;;;;;;;;5018755;28;20721;-52
2022/01/08 13:31:14;;;;;;;1.52;1.10;;;;;;;;;;5021604;28;20105;-55
2022/01/08 13:33:41;;;;;;;0.98;0.98;;;;;;;;;;5018832;28;20038;-55
2022/01/08 13:36:12;;;;;;;1.48;1.10;;;;;;;;;;5021015;28;20105;-49
2022/01/08 13:38:41;;;;;;;1.03;0.97;;;;;;;;;;5028266;28;20087;-53
2022/01/08 13:41:16;;;;;;;1.50;1.38;;;;;;;;;;5023803;28;20744;-53
2022/01/08 13:44:05;;;;;;;1.95;1.48;;;;;;;;;;5019781;28;20069;-51
2022/01/08 13:46:36;;;;;;;1.67;1.20;;;;;;;;;;5022660;28;20041;-55
2022/01/08 13:49:07;;;;;;;1.73;1.42;;;;;;;;;;5024732;28;20091;-54
2022/01/08 13:51:38;;;;;;;1.88;1.50;;;;;;;;;;5023861;28;20037;-54
2022/01/08 13:54:06;;;;;;;4.85;1.27;;;;;;;;;;5017645;28;20045;-51
2022/01/08 13:56:34;;;;;;;4.43;2.35;;;;;;;;;;5020062;28;20116;-53
2022/01/08 13:59:10;;;;;;;3.65;1.40;;;;;;;;;;5020028;28;20025;-54
2022/01/08 14:01:40;;;;;;;1.83;1.60;;;;;;;;;;5019592;28;20079;-52
2022/01/08 14:04:06;;;;;;;1.55;1.30;;;;;;;;;;5026670;28;20079;-55
2022/01/08 14:06:32;;;;;;;3.70;2.03;;;;;;;;;;5015955;28;20025;-51
2022/01/08 14:09:00;;;;;;;1.50;1.40;;;;;;;;;;5020798;28;20037;-52
2022/01/08 14:11:28;;;;;;;3.45;1.88;;;;;;;;;;5022935;28;20037;-55
2022/01/08 14:13:55;;;;;;;2.65;1.20;;;;;;;;;;5023745;28;20029;-56
2022/01/08 14:16:29;;;;;;;1.55;1.42;;;;;;;;;;5023930;28;20045;-53
2022/01/08 14:19:34;;;;;;;2.92;1.58;;;;;;;;;;5019944;28;20038;-55
2022/01/08 14:22:04;;;;;;;1.77;1.40;;;;;;;;;;4986417;28;20030;-54
2022/01/08 14:24:35;;;;;;;1.42;1.15;;;;;;;;;;4977939;28;20121;-55
2022/01/08 14:27:06;;;;;;;2.67;1.10;;;;;;;;;;4984217;28;20042;-48
2022/01/08 14:29:34;;;;;;;2.55;1.55;;;;;;;;;;4983615;28;20288;-55
2022/01/08 14:32:03;;;;;;;1.45;1.30;;;;;;;;;;4985981;28;20027;-55
2022/01/08 14:34:28;;;;;;;2.08;1.70;;;;;;;;;;4982839;28;20136;-56
2022/01/08 14:37:00;;;;;;;1.52;1.42;;;;;;;;;;4986864;28;20492;-55
2022/01/08 14:39:32;;;;;;;1.20;1.13;;;;;;;;;;4985757;28;20510;-55
2022/01/08 14:42:08;;;;;;;4.25;2.70;;;;;;;;;;4985904;28;20042;-48
2022/01/08 14:44:34;;;;;;;6.40;3.90;;;;;;;;;;4982558;28;20035;-47
2022/01/08 14:47:01;;;;;;;4.50;2.53;;;;;;;;;;4985077;28;20046;-50
2022/01/08 14:49:27;;;;;;;3.58;2.25;;;;;;;;;;4979124;28;20491;-50
2022/01/08 14:51:53;;;;;;;4.85;1.83;;;;;;;;;;4984275;28;20056;-50
2022/01/08 14:54:33;;;;;;;5.95;4.40;;;;;;;;;;5023005;28;20026;-48
2022/01/08 14:57:00;;;;;;;3.50;1.77;;;;;;;;;;5020698;28;20037;-47
2022/01/08 14:59:26;;;;;;;3.90;2.65;;;;;;;;;;5018516;28;20494;-50
2022/01/08 15:01:54;;;;;;;1.58;1.48;;;;;;;;;;5021257;28;20569;-54
2022/01/08 15:04:19;;;;;;;5.03;2.42;;;;;;;;;;5017177;28;20025;-54
2022/01/08 15:06:45;;;;;;;2.28;2.03;;;;;;;;;;5017965;28;20036;-53
2022/01/08 15:09:12;;;;;;;2.22;1.90;;;;;;;;;;5018002;28;20249;-48
2022/01/08 15:11:38;;;;;;;5.97;3.00;;;;;;;;;;5018847;28;20053;-48
2022/01/08 15:14:05;;;;;;;4.22;3.10;;;;;;;;;;5023289;28;20076;-50
2022/01/08 15:16:31;;;;;;;8.30;4.78;;;;;;;;;;5016495;28;20079;-51
2022/01/08 15:18:57;;;;;;;8.15;4.93;;;;;;;;;;5017936;28;20403;-51